sensor_id;sensor_type;location;lat;lon;timestamp;temperature;humidity
27314;DHT22;14800;48.174;9.798;2023-04-28T00:01:25;11.80;73.50
27314;DHT22;14800;48.174;9.798;2023-04-28T00:03:50;11.80;73.50
27314;DHT22;14800;48.174;9.798;2023-04-28T00:06:17;11.90;73.70
27314;DHT22;14800;48.174;9.798;2023-04-28T00:08:43;11.90;73.60
27314;DHT22;14800;48.174;9.798;2023-04-28T00:11:09;11.90;73.60
27314;DHT22;14800;48.174;9.798;2023-04-28T00:13:35;12.00;73.70
27314;DHT22;14800;48.174;9.798;2023-04-28T00:16:01;12.00;73.70
27314;DHT22;14800;48.174;9.798;2023-04-28T00:18:26;12.00;73.70
27314;DHT22;14800;48.174;9.798;2023-04-28T00:20:54;12.00;73.70
27314;DHT22;14800;48.174;9.798;2023-04-28T00:23:19;12.10;73.90
27314;DHT22;14800;48.174;9.798;2023-04-28T00:25:50;12.10;73.90
27314;DHT22;14800;48.174;9.798;2023-04-28T00:28:16;12.10;74.10
27314;DHT22;14800;48.174;9.798;2023-04-28T00:30:42;12.00;73.70
27314;DHT22;14800;48.174;9.798;2023-04-28T00:33:07;12.00;73.70
27314;DHT22;14800;48.174;9.798;2023-04-28T00:35:33;12.00;74.00
27314;DHT22;14800;48.174;9.798;2023-04-28T00:37:58;12.00;74.50
27314;DHT22;14800;48.174;9.798;2023-04-28T00:40:34;12.00;74.60
27314;DHT22;14800;48.174;9.798;2023-04-28T00:43:01;12.00;75.10
27314;DHT22;14800;48.174;9.798;2023-04-28T00:45:27;12.00;74.70
27314;DHT22;14800;48.174;9.798;2023-04-28T00:47:54;12.00;74.90
27314;DHT22;14800;48.174;9.798;2023-04-28T00:50:20;12.00;75.30
27314;DHT22;14800;48.174;9.798;2023-04-28T00:52:46;12.10;75.40
27314;DHT22;14800;48.174;9.798;2023-04-28T00:55:14;12.10;75.40
27314;DHT22;14800;48.174;9.798;2023-04-28T00:57:41;12.10;75.60
27314;DHT22;14800;48.174;9.798;2023-04-28T01:00:07;12.10;75.50
27314;DHT22;14800;48.174;9.798;2023-04-28T01:02:37;12.10;75.40
27314;DHT22;14800;48.174;9.798;2023-04-28T01:05:03;12.10;75.40
27314;DHT22;14800;48.174;9.798;2023-04-28T01:07:30;12.10;75.30
27314;DHT22;14800;48.174;9.798;2023-04-28T01:09:56;12.20;75.60
27314;DHT22;14800;48.174;9.798;2023-04-28T01:12:22;12.20;75.70
27314;DHT22;14800;48.174;9.798;2023-04-28T01:14:50;12.20;76.90
27314;DHT22;14800;48.174;9.798;2023-04-28T01:17:16;12.30;76.30
27314;DHT22;14800;48.174;9.798;2023-04-28T01:19:42;12.30;76.00
27314;DHT22;14800;48.174;9.798;2023-04-28T01:22:07;12.20;76.00
27314;DHT22;14800;48.174;9.798;2023-04-28T01:24:38;12.20;76.00
27314;DHT22;14800;48.174;9.798;2023-04-28T01:27:03;12.20;76.00
27314;DHT22;14800;48.174;9.798;2023-04-28T01:29:29;12.30;76.00
27314;DHT22;14800;48.174;9.798;2023-04-28T01:31:55;12.20;75.70
27314;DHT22;14800;48.174;9.798;2023-04-28T01:34:20;12.30;75.90
27314;DHT22;14800;48.174;9.798;2023-04-28T01:36:46;12.30;76.10
27314;DHT22;14800;48.174;9.798;2023-04-28T01:39:11;12.30;76.20
27314;DHT22;14800;48.174;9.798;2023-04-28T01:41:38;12.30;76.30
27314;DHT22;14800;48.174;9.798;2023-04-28T01:44:03;12.30;76.40
27314;DHT22;14800;48.174;9.798;2023-04-28T01:46:30;12.30;76.40
27314;DHT22;14800;48.174;9.798;2023-04-28T01:48:56;12.20;76.30
27314;DHT22;14800;48.174;9.798;2023-04-28T01:51:21;12.20;76.20
27314;DHT22;14800;48.174;9.798;2023-04-28T01:53:47;12.20;76.30
27314;DHT22;14800;48.174;9.798;2023-04-28T01:56:12;12.20;76.40
27314;DHT22;14800;48.174;9.798;2023-04-28T01:58:56;12.20;76.40
27314;DHT22;14800;48.174;9.798;2023-04-28T02:01:22;12.20;76.10
27314;DHT22;14800;48.174;9.798;2023-04-28T02:03:47;12.30;76.10
27314;DHT22;14800;48.174;9.798;2023-04-28T02:06:14;12.20;76.00
27314;DHT22;14800;48.174;9.798;2023-04-28T02:08:40;12.20;76.10
27314;DHT22;14800;48.174;9.798;2023-04-28T02:11:05;12.20;76.40
27314;DHT22;14800;48.174;9.798;2023-04-28T02:13:31;12.20;76.50
27314;DHT22;14800;48.174;9.798;2023-04-28T02:15:59;12.20;76.50
27314;DHT22;14800;48.174;9.798;2023-04-28T02:18:26;12.30;76.90
27314;DHT22;14800;48.174;9.798;2023-04-28T02:20:51;12.30;76.70
27314;DHT22;14800;48.174;9.798;2023-04-28T02:23:17;12.30;76.70
27314;DHT22;14800;48.174;9.798;2023-04-28T02:25:42;12.30;76.70
27314;DHT22;14800;48.174;9.798;2023-04-28T02:28:08;12.30;76.60
27314;DHT22;14800;48.174;9.798;2023-04-28T02:30:33;12.30;76.70
27314;DHT22;14800;48.174;9.798;2023-04-28T02:32:59;12.30;76.70
27314;DHT22;14800;48.174;9.798;2023-04-28T02:35:24;12.30;76.60
27314;DHT22;14800;48.174;9.798;2023-04-28T02:37:50;12.30;76.60
27314;DHT22;14800;48.174;9.798;2023-04-28T02:40:16;12.30;76.60
27314;DHT22;14800;48.174;9.798;2023-04-28T02:42:42;12.30;76.50
27314;DHT22;14800;48.174;9.798;2023-04-28T02:45:08;12.30;76.30
27314;DHT22;14800;48.174;9.798;2023-04-28T02:47:33;12.30;76.30
27314;DHT22;14800;48.174;9.798;2023-04-28T02:49:59;12.20;76.10
27314;DHT22;14800;48.174;9.798;2023-04-28T02:52:25;12.20;76.30
27314;DHT22;14800;48.174;9.798;2023-04-28T02:54:51;12.10;76.50
27314;DHT22;14800;48.174;9.798;2023-04-28T02:57:19;12.10;76.60
27314;DHT22;14800;48.174;9.798;2023-04-28T02:59:44;12.00;76.80
27314;DHT22;14800;48.174;9.798;2023-04-28T03:02:10;12.00;77.00
27314;DHT22;14800;48.174;9.798;2023-04-28T03:04:37;11.90;77.10
27314;DHT22;14800;48.174;9.798;2023-04-28T03:07:02;11.90;77.30
27314;DHT22;14800;48.174;9.798;2023-04-28T03:09:28;11.90;77.50
27314;DHT22;14800;48.174;9.798;2023-04-28T03:11:53;11.90;77.60
27314;DHT22;14800;48.174;9.798;2023-04-28T03:14:19;12.00;77.50
27314;DHT22;14800;48.174;9.798;2023-04-28T03:16:45;12.00;77.50
27314;DHT22;14800;48.174;9.798;2023-04-28T03:19:10;12.00;77.60
27314;DHT22;14800;48.174;9.798;2023-04-28T03:21:36;12.10;77.50
27314;DHT22;14800;48.174;9.798;2023-04-28T03:24:01;12.10;77.40
27314;DHT22;14800;48.174;9.798;2023-04-28T03:26:27;12.20;77.20
27314;DHT22;14800;48.174;9.798;2023-04-28T03:28:53;12.20;77.20
27314;DHT22;14800;48.174;9.798;2023-04-28T03:31:18;12.20;77.10
27314;DHT22;14800;48.174;9.798;2023-04-28T03:33:44;12.20;77.20
27314;DHT22;14800;48.174;9.798;2023-04-28T03:36:11;12.20;77.20
27314;DHT22;14800;48.174;9.798;2023-04-28T03:38:36;12.20;77.20
27314;DHT22;14800;48.174;9.798;2023-04-28T03:41:03;12.20;77.40
27314;DHT22;14800;48.174;9.798;2023-04-28T03:43:28;12.20;77.60
27314;DHT22;14800;48.174;9.798;2023-04-28T03:45:54;12.10;77.80
27314;DHT22;14800;48.174;9.798;2023-04-28T03:48:19;12.10;78.00
27314;DHT22;14800;48.174;9.798;2023-04-28T03:50:45;12.10;78.20
27314;DHT22;14800;48.174;9.798;2023-04-28T03:53:10;12.10;78.60
27314;DHT22;14800;48.174;9.798;2023-04-28T03:55:36;12.10;78.50
27314;DHT22;14800;48.174;9.798;2023-04-28T03:58:03;12.10;78.60
27314;DHT22;14800;48.174;9.798;2023-04-28T04:00:28;12.10;78.70
27314;DHT22;14800;48.174;9.798;2023-04-28T04:02:54;12.10;78.70
27314;DHT22;14800;48.174;9.798;2023-04-28T04:05:20;12.10;78.70
27314;DHT22;14800;48.174;9.798;2023-04-28T04:07:45;12.10;78.90
27314;DHT22;14800;48.174;9.798;2023-04-28T04:10:11;12.10;79.00
27314;DHT22;14800;48.174;9.798;2023-04-28T04:12:36;12.20;79.10
27314;DHT22;14800;48.174;9.798;2023-04-28T04:15:02;12.20;79.10
27314;DHT22;14800;48.174;9.798;2023-04-28T04:17:28;12.20;79.30
27314;DHT22;14800;48.174;9.798;2023-04-28T04:19:53;12.20;79.40
27314;DHT22;14800;48.174;9.798;2023-04-28T04:22:19;12.20;79.30
27314;DHT22;14800;48.174;9.798;2023-04-28T04:24:45;12.20;80.10
27314;DHT22;14800;48.174;9.798;2023-04-28T04:27:10;12.20;79.30
27314;DHT22;14800;48.174;9.798;2023-04-28T04:29:36;12.20;79.30
27314;DHT22;14800;48.174;9.798;2023-04-28T04:32:01;12.30;79.30
27314;DHT22;14800;48.174;9.798;2023-04-28T04:34:27;12.30;79.40
27314;DHT22;14800;48.174;9.798;2023-04-28T04:36:52;12.30;79.60
27314;DHT22;14800;48.174;9.798;2023-04-28T04:39:18;12.30;80.00
27314;DHT22;14800;48.174;9.798;2023-04-28T04:41:44;12.30;80.10
27314;DHT22;14800;48.174;9.798;2023-04-28T04:44:09;12.30;80.10
27314;DHT22;14800;48.174;9.798;2023-04-28T04:46:35;12.30;80.20
27314;DHT22;14800;48.174;9.798;2023-04-28T04:49:00;12.30;80.40
27314;DHT22;14800;48.174;9.798;2023-04-28T04:51:26;12.30;80.60
27314;DHT22;14800;48.174;9.798;2023-04-28T04:53:52;12.40;80.80
27314;DHT22;14800;48.174;9.798;2023-04-28T04:56:18;12.40;81.10
27314;DHT22;14800;48.174;9.798;2023-04-28T04:58:43;12.40;81.30
27314;DHT22;14800;48.174;9.798;2023-04-28T05:01:09;12.40;81.60
27314;DHT22;14800;48.174;9.798;2023-04-28T05:03:34;12.40;81.70
27314;DHT22;14800;48.174;9.798;2023-04-28T05:06:00;12.40;82.00
27314;DHT22;14800;48.174;9.798;2023-04-28T05:08:27;12.40;82.20
27314;DHT22;14800;48.174;9.798;2023-04-28T05:10:53;12.50;82.40
27314;DHT22;14800;48.174;9.798;2023-04-28T05:13:18;12.50;82.50
27314;DHT22;14800;48.174;9.798;2023-04-28T05:15:44;12.50;82.70
27314;DHT22;14800;48.174;9.798;2023-04-28T05:18:09;12.50;82.70
27314;DHT22;14800;48.174;9.798;2023-04-28T05:20:36;12.50;82.90
27314;DHT22;14800;48.174;9.798;2023-04-28T05:23:02;12.50;83.30
27314;DHT22;14800;48.174;9.798;2023-04-28T05:25:28;12.50;83.30
27314;DHT22;14800;48.174;9.798;2023-04-28T05:27:54;12.50;83.50
27314;DHT22;14800;48.174;9.798;2023-04-28T05:30:20;12.50;83.70
27314;DHT22;14800;48.174;9.798;2023-04-28T05:32:45;12.50;83.90
27314;DHT22;14800;48.174;9.798;2023-04-28T05:35:11;12.50;84.00
27314;DHT22;14800;48.174;9.798;2023-04-28T05:37:36;12.50;84.00
27314;DHT22;14800;48.174;9.798;2023-04-28T05:40:02;12.50;84.30
27314;DHT22;14800;48.174;9.798;2023-04-28T05:42:28;12.50;84.30
27314;DHT22;14800;48.174;9.798;2023-04-28T05:44:54;12.50;84.70
27314;DHT22;14800;48.174;9.798;2023-04-28T05:47:20;12.50;84.60
27314;DHT22;14800;48.174;9.798;2023-04-28T05:49:45;12.50;84.90
27314;DHT22;14800;48.174;9.798;2023-04-28T05:52:11;12.50;84.80
27314;DHT22;14800;48.174;9.798;2023-04-28T05:54:36;12.50;85.10
27314;DHT22;14800;48.174;9.798;2023-04-28T05:57:02;12.50;85.30
27314;DHT22;14800;48.174;9.798;2023-04-28T05:59:28;12.60;85.60
27314;DHT22;14800;48.174;9.798;2023-04-28T06:01:55;12.60;85.90
27314;DHT22;14800;48.174;9.798;2023-04-28T06:04:20;12.60;85.90
27314;DHT22;14800;48.174;9.798;2023-04-28T06:06:46;12.70;85.90
27314;DHT22;14800;48.174;9.798;2023-04-28T06:09:11;12.70;85.90
27314;DHT22;14800;48.174;9.798;2023-04-28T06:11:37;12.70;85.90
27314;DHT22;14800;48.174;9.798;2023-04-28T06:14:02;12.80;86.00
27314;DHT22;14800;48.174;9.798;2023-04-28T06:16:28;12.80;85.90
27314;DHT22;14800;48.174;9.798;2023-04-28T06:18:54;12.80;86.30
27314;DHT22;14800;48.174;9.798;2023-04-28T06:21:19;12.80;86.20
27314;DHT22;14800;48.174;9.798;2023-04-28T06:23:45;12.80;86.20
27314;DHT22;14800;48.174;9.798;2023-04-28T06:26:11;12.80;86.60
27314;DHT22;14800;48.174;9.798;2023-04-28T06:28:37;12.90;86.80
27314;DHT22;14800;48.174;9.798;2023-04-28T06:31:02;12.90;86.80
27314;DHT22;14800;48.174;9.798;2023-04-28T06:33:28;12.90;87.00
27314;DHT22;14800;48.174;9.798;2023-04-28T06:35:53;12.90;87.10
27314;DHT22;14800;48.174;9.798;2023-04-28T06:38:19;12.90;87.30
27314;DHT22;14800;48.174;9.798;2023-04-28T06:40:45;12.90;87.10
27314;DHT22;14800;48.174;9.798;2023-04-28T06:43:11;13.00;87.30
27314;DHT22;14800;48.174;9.798;2023-04-28T06:45:37;13.00;87.30
27314;DHT22;14800;48.174;9.798;2023-04-28T06:48:03;13.00;87.20
27314;DHT22;14800;48.174;9.798;2023-04-28T06:50:29;13.00;87.30
27314;DHT22;14800;48.174;9.798;2023-04-28T06:52:55;13.10;87.40
27314;DHT22;14800;48.174;9.798;2023-04-28T06:55:20;13.10;87.40
27314;DHT22;14800;48.174;9.798;2023-04-28T06:57:46;13.10;87.30
27314;DHT22;14800;48.174;9.798;2023-04-28T07:00:12;13.10;87.60
27314;DHT22;14800;48.174;9.798;2023-04-28T07:02:38;13.20;87.40
27314;DHT22;14800;48.174;9.798;2023-04-28T07:05:04;13.10;87.10
27314;DHT22;14800;48.174;9.798;2023-04-28T07:07:30;13.10;86.80
27314;DHT22;14800;48.174;9.798;2023-04-28T07:09:55;13.10;86.70
27314;DHT22;14800;48.174;9.798;2023-04-28T07:12:21;13.10;86.70
27314;DHT22;14800;48.174;9.798;2023-04-28T07:14:47;13.10;86.60
27314;DHT22;14800;48.174;9.798;2023-04-28T07:17:13;13.10;86.70
27314;DHT22;14800;48.174;9.798;2023-04-28T07:19:38;13.10;87.10
27314;DHT22;14800;48.174;9.798;2023-04-28T07:22:04;13.10;87.10
27314;DHT22;14800;48.174;9.798;2023-04-28T07:24:30;13.10;87.30
27314;DHT22;14800;48.174;9.798;2023-04-28T07:26:56;13.10;87.30
27314;DHT22;14800;48.174;9.798;2023-04-28T07:29:22;13.00;87.30
27314;DHT22;14800;48.174;9.798;2023-04-28T07:31:48;13.00;87.30
27314;DHT22;14800;48.174;9.798;2023-04-28T07:34:13;13.10;88.00
27314;DHT22;14800;48.174;9.798;2023-04-28T07:36:39;13.00;87.40
27314;DHT22;14800;48.174;9.798;2023-04-28T07:39:05;13.00;87.60
27314;DHT22;14800;48.174;9.798;2023-04-28T07:41:38;13.00;87.80
27314;DHT22;14800;48.174;9.798;2023-04-28T07:44:04;13.10;88.10
27314;DHT22;14800;48.174;9.798;2023-04-28T07:46:31;13.10;87.80
27314;DHT22;14800;48.174;9.798;2023-04-28T07:48:56;13.10;87.70
27314;DHT22;14800;48.174;9.798;2023-04-28T07:51:22;13.10;88.00
27314;DHT22;14800;48.174;9.798;2023-04-28T07:53:47;13.10;88.10
27314;DHT22;14800;48.174;9.798;2023-04-28T07:56:13;13.20;88.00
27314;DHT22;14800;48.174;9.798;2023-04-28T07:58:38;13.20;88.00
27314;DHT22;14800;48.174;9.798;2023-04-28T08:01:04;13.30;88.10
27314;DHT22;14800;48.174;9.798;2023-04-28T08:03:30;13.30;88.10
27314;DHT22;14800;48.174;9.798;2023-04-28T08:05:55;13.30;89.20
27314;DHT22;14800;48.174;9.798;2023-04-28T08:08:21;13.30;88.50
27314;DHT22;14800;48.174;9.798;2023-04-28T08:10:46;13.40;88.30
27314;DHT22;14800;48.174;9.798;2023-04-28T08:13:12;13.30;88.50
27314;DHT22;14800;48.174;9.798;2023-04-28T08:15:38;13.40;88.70
27314;DHT22;14800;48.174;9.798;2023-04-28T08:18:03;13.40;88.60
27314;DHT22;14800;48.174;9.798;2023-04-28T08:20:29;13.50;88.80
27314;DHT22;14800;48.174;9.798;2023-04-28T08:22:56;13.50;88.60
27314;DHT22;14800;48.174;9.798;2023-04-28T08:25:22;13.50;88.50
27314;DHT22;14800;48.174;9.798;2023-04-28T08:27:48;13.60;88.60
27314;DHT22;14800;48.174;9.798;2023-04-28T08:30:13;13.60;89.20
27314;DHT22;14800;48.174;9.798;2023-04-28T08:32:39;13.60;88.40
27314;DHT22;14800;48.174;9.798;2023-04-28T08:35:05;13.70;88.50
27314;DHT22;14800;48.174;9.798;2023-04-28T08:37:31;13.70;88.40
27314;DHT22;14800;48.174;9.798;2023-04-28T08:39:56;13.70;88.20
27314;DHT22;14800;48.174;9.798;2023-04-28T08:42:29;13.80;88.30
27314;DHT22;14800;48.174;9.798;2023-04-28T08:44:57;13.80;88.80
27314;DHT22;14800;48.174;9.798;2023-04-28T08:47:36;13.80;88.80
27314;DHT22;14800;48.174;9.798;2023-04-28T08:50:04;13.90;89.40
27314;DHT22;14800;48.174;9.798;2023-04-28T08:52:30;13.90;89.20
27314;DHT22;14800;48.174;9.798;2023-04-28T08:54:58;13.90;88.90
27314;DHT22;14800;48.174;9.798;2023-04-28T08:57:26;14.00;89.00
27314;DHT22;14800;48.174;9.798;2023-04-28T08:59:52;14.00;89.00
27314;DHT22;14800;48.174;9.798;2023-04-28T09:02:18;14.00;88.70
27314;DHT22;14800;48.174;9.798;2023-04-28T09:04:46;14.10;88.60
27314;DHT22;14800;48.174;9.798;2023-04-28T09:07:12;14.10;89.00
27314;DHT22;14800;48.174;9.798;2023-04-28T09:09:38;14.10;88.80
27314;DHT22;14800;48.174;9.798;2023-04-28T09:12:05;14.10;88.80
27314;DHT22;14800;48.174;9.798;2023-04-28T09:14:34;14.20;88.60
27314;DHT22;14800;48.174;9.798;2023-04-28T09:17:01;14.20;88.80
27314;DHT22;14800;48.174;9.798;2023-04-28T09:19:34;14.20;88.60
27314;DHT22;14800;48.174;9.798;2023-04-28T09:22:00;14.20;89.60
27314;DHT22;14800;48.174;9.798;2023-04-28T09:26:59;14.30;90.20
27314;DHT22;14800;48.174;9.798;2023-04-28T09:29:27;14.30;89.30
27314;DHT22;14800;48.174;9.798;2023-04-28T09:31:52;14.40;89.30
27314;DHT22;14800;48.174;9.798;2023-04-28T09:34:19;14.40;89.40
27314;DHT22;14800;48.174;9.798;2023-04-28T09:36:45;14.40;89.60
27314;DHT22;14800;48.174;9.798;2023-04-28T09:39:10;14.50;89.70
27314;DHT22;14800;48.174;9.798;2023-04-28T09:44:17;14.50;89.70
27314;DHT22;14800;48.174;9.798;2023-04-28T09:46:44;14.60;90.00
27314;DHT22;14800;48.174;9.798;2023-04-28T09:49:11;14.60;89.40
27314;DHT22;14800;48.174;9.798;2023-04-28T09:51:37;14.60;89.50
27314;DHT22;14800;48.174;9.798;2023-04-28T09:54:04;14.70;89.70
27314;DHT22;14800;48.174;9.798;2023-04-28T09:56:31;14.70;89.80
27314;DHT22;14800;48.174;9.798;2023-04-28T09:58:58;14.70;89.70
27314;DHT22;14800;48.174;9.798;2023-04-28T10:01:26;14.80;89.80
27314;DHT22;14800;48.174;9.798;2023-04-28T10:03:53;14.80;89.70
27314;DHT22;14800;48.174;9.798;2023-04-28T10:06:20;14.90;89.50
27314;DHT22;14800;48.174;9.798;2023-04-28T10:08:47;14.80;90.10
27314;DHT22;14800;48.174;9.798;2023-04-28T10:11:15;14.90;89.70
27314;DHT22;14800;48.174;9.798;2023-04-28T10:13:42;14.90;89.30
27314;DHT22;14800;48.174;9.798;2023-04-28T10:16:09;15.00;89.40
27314;DHT22;14800;48.174;9.798;2023-04-28T10:18:36;14.90;89.50
27314;DHT22;14800;48.174;9.798;2023-04-28T10:21:03;15.00;90.20
27314;DHT22;14800;48.174;9.798;2023-04-28T10:26:19;15.00;90.20
27314;DHT22;14800;48.174;9.798;2023-04-28T10:28:46;15.10;89.50
27314;DHT22;14800;48.174;9.798;2023-04-28T10:31:20;15.10;89.70
27314;DHT22;14800;48.174;9.798;2023-04-28T10:33:47;15.20;90.20
27314;DHT22;14800;48.174;9.798;2023-04-28T10:36:50;15.20;90.00
27314;DHT22;14800;48.174;9.798;2023-04-28T10:39:20;15.30;90.50
27314;DHT22;14800;48.174;9.798;2023-04-28T10:41:46;15.40;90.00
27314;DHT22;14800;48.174;9.798;2023-04-28T10:44:42;15.50;90.00
27314;DHT22;14800;48.174;9.798;2023-04-28T10:47:09;15.50;90.40
27314;DHT22;14800;48.174;9.798;2023-04-28T11:00:41;16.00;89.90
27314;DHT22;14800;48.174;9.798;2023-04-28T11:03:07;16.10;89.70
27314;DHT22;14800;48.174;9.798;2023-04-28T11:05:33;16.20;89.50
27314;DHT22;14800;48.174;9.798;2023-04-28T11:13:39;16.40;89.20
27314;DHT22;14800;48.174;9.798;2023-04-28T11:16:06;16.50;87.80
27314;DHT22;14800;48.174;9.798;2023-04-28T11:21:20;16.50;87.30
27314;DHT22;14800;48.174;9.798;2023-04-28T11:23:46;16.60;87.30
27314;DHT22;14800;48.174;9.798;2023-04-28T11:26:12;16.60;87.40
27314;DHT22;14800;48.174;9.798;2023-04-28T11:28:55;16.60;86.70
27314;DHT22;14800;48.174;9.798;2023-04-28T11:31:23;16.70;86.50
27314;DHT22;14800;48.174;9.798;2023-04-28T11:33:55;16.70;85.90
27314;DHT22;14800;48.174;9.798;2023-04-28T11:36:23;16.70;85.70
27314;DHT22;14800;48.174;9.798;2023-04-28T11:38:48;16.60;85.60
27314;DHT22;14800;48.174;9.798;2023-04-28T11:41:14;16.70;85.70
27314;DHT22;14800;48.174;9.798;2023-04-28T11:43:40;16.60;85.50
27314;DHT22;14800;48.174;9.798;2023-04-28T11:46:06;16.60;85.80
27314;DHT22;14800;48.174;9.798;2023-04-28T11:48:32;16.60;86.20
27314;DHT22;14800;48.174;9.798;2023-04-28T11:50:57;16.60;86.50
27314;DHT22;14800;48.174;9.798;2023-04-28T11:53:42;16.60;86.50
27314;DHT22;14800;48.174;9.798;2023-04-28T11:56:08;16.70;87.20
27314;DHT22;14800;48.174;9.798;2023-04-28T11:58:34;16.80;86.70
27314;DHT22;14800;48.174;9.798;2023-04-28T12:01:08;16.80;86.40
27314;DHT22;14800;48.174;9.798;2023-04-28T12:03:46;16.80;86.20
27314;DHT22;14800;48.174;9.798;2023-04-28T12:06:21;16.90;86.20
27314;DHT22;14800;48.174;9.798;2023-04-28T12:08:47;17.00;86.00
27314;DHT22;14800;48.174;9.798;2023-04-28T12:11:13;17.00;86.00
27314;DHT22;14800;48.174;9.798;2023-04-28T12:13:40;17.10;85.40
27314;DHT22;14800;48.174;9.798;2023-04-28T12:16:06;17.10;85.30
27314;DHT22;14800;48.174;9.798;2023-04-28T12:18:34;17.10;85.10
27314;DHT22;14800;48.174;9.798;2023-04-28T12:21:00;17.10;84.90
27314;DHT22;14800;48.174;9.798;2023-04-28T12:23:34;17.10;84.90
27314;DHT22;14800;48.174;9.798;2023-04-28T12:26:00;17.10;85.00
27314;DHT22;14800;48.174;9.798;2023-04-28T12:28:37;17.10;85.00
27314;DHT22;14800;48.174;9.798;2023-04-28T12:31:04;17.10;84.80
27314;DHT22;14800;48.174;9.798;2023-04-28T12:33:30;17.10;84.60
27314;DHT22;14800;48.174;9.798;2023-04-28T12:35:58;17.00;84.50
27314;DHT22;14800;48.174;9.798;2023-04-28T12:38:25;17.00;84.60
27314;DHT22;14800;48.174;9.798;2023-04-28T12:40:51;17.00;84.90
27314;DHT22;14800;48.174;9.798;2023-04-28T12:43:17;17.00;84.90
27314;DHT22;14800;48.174;9.798;2023-04-28T12:45:43;17.00;85.10
27314;DHT22;14800;48.174;9.798;2023-04-28T12:48:09;17.10;85.30
27314;DHT22;14800;48.174;9.798;2023-04-28T12:50:35;17.10;85.20
27314;DHT22;14800;48.174;9.798;2023-04-28T12:53:00;17.10;85.20
27314;DHT22;14800;48.174;9.798;2023-04-28T12:55:26;17.10;85.00
27314;DHT22;14800;48.174;9.798;2023-04-28T12:57:53;17.20;84.80
27314;DHT22;14800;48.174;9.798;2023-04-28T13:00:19;17.20;84.60
27314;DHT22;14800;48.174;9.798;2023-04-28T13:02:48;17.30;84.60
27314;DHT22;14800;48.174;9.798;2023-04-28T13:05:13;17.20;84.50
27314;DHT22;14800;48.174;9.798;2023-04-28T13:07:39;17.30;84.40
27314;DHT22;14800;48.174;9.798;2023-04-28T13:10:05;17.30;84.20
27314;DHT22;14800;48.174;9.798;2023-04-28T13:12:32;17.30;84.30
27314;DHT22;14800;48.174;9.798;2023-04-28T13:15:00;17.40;84.70
27314;DHT22;14800;48.174;9.798;2023-04-28T13:17:26;17.40;84.50
27314;DHT22;14800;48.174;9.798;2023-04-28T13:19:52;17.40;84.50
27314;DHT22;14800;48.174;9.798;2023-04-28T13:22:18;17.50;84.50
27314;DHT22;14800;48.174;9.798;2023-04-28T13:24:44;17.50;84.60
27314;DHT22;14800;48.174;9.798;2023-04-28T13:27:09;17.60;84.50
27314;DHT22;14800;48.174;9.798;2023-04-28T13:29:35;17.60;84.20
27314;DHT22;14800;48.174;9.798;2023-04-28T13:32:01;17.70;84.20
27314;DHT22;14800;48.174;9.798;2023-04-28T13:34:27;17.80;84.30
27314;DHT22;14800;48.174;9.798;2023-04-28T13:36:52;17.90;84.00
27314;DHT22;14800;48.174;9.798;2023-04-28T13:39:20;17.90;83.80
27314;DHT22;14800;48.174;9.798;2023-04-28T13:41:46;18.00;84.00
27314;DHT22;14800;48.174;9.798;2023-04-28T13:44:13;18.10;83.80
27314;DHT22;14800;48.174;9.798;2023-04-28T13:46:39;18.20;83.30
27314;DHT22;14800;48.174;9.798;2023-04-28T13:49:04;18.30;82.60
27314;DHT22;14800;48.174;9.798;2023-04-28T13:51:30;18.30;82.40
27314;DHT22;14800;48.174;9.798;2023-04-28T13:53:57;18.30;81.90
27314;DHT22;14800;48.174;9.798;2023-04-28T13:56:23;18.30;81.70
27314;DHT22;14800;48.174;9.798;2023-04-28T13:58:48;18.30;81.70
27314;DHT22;14800;48.174;9.798;2023-04-28T14:01:14;18.30;81.60
27314;DHT22;14800;48.174;9.798;2023-04-28T14:03:40;18.40;81.50
27314;DHT22;14800;48.174;9.798;2023-04-28T14:06:06;18.40;81.50
27314;DHT22;14800;48.174;9.798;2023-04-28T14:08:32;18.30;81.30
27314;DHT22;14800;48.174;9.798;2023-04-28T14:10:58;18.40;81.40
27314;DHT22;14800;48.174;9.798;2023-04-28T14:13:24;18.30;81.30
27314;DHT22;14800;48.174;9.798;2023-04-28T14:15:52;18.30;81.70
27314;DHT22;14800;48.174;9.798;2023-04-28T14:18:18;18.20;82.40
27314;DHT22;14800;48.174;9.798;2023-04-28T14:20:44;18.10;82.40
27314;DHT22;14800;48.174;9.798;2023-04-28T14:23:10;18.10;82.90
27314;DHT22;14800;48.174;9.798;2023-04-28T14:25:35;18.10;83.40
27314;DHT22;14800;48.174;9.798;2023-04-28T14:28:02;18.00;84.40
27314;DHT22;14800;48.174;9.798;2023-04-28T14:30:27;18.00;83.50
27314;DHT22;14800;48.174;9.798;2023-04-28T14:32:53;18.00;83.40
27314;DHT22;14800;48.174;9.798;2023-04-28T14:35:19;17.90;83.30
27314;DHT22;14800;48.174;9.798;2023-04-28T14:37:47;17.90;83.20
27314;DHT22;14800;48.174;9.798;2023-04-28T14:40:13;17.90;83.40
27314;DHT22;14800;48.174;9.798;2023-04-28T14:42:40;17.90;83.40
27314;DHT22;14800;48.174;9.798;2023-04-28T14:45:07;17.90;83.40
27314;DHT22;14800;48.174;9.798;2023-04-28T14:47:34;17.90;83.50
27314;DHT22;14800;48.174;9.798;2023-04-28T14:50:00;17.80;83.60
27314;DHT22;14800;48.174;9.798;2023-04-28T14:52:25;17.80;84.00
27314;DHT22;14800;48.174;9.798;2023-04-28T14:54:54;17.70;84.20
27314;DHT22;14800;48.174;9.798;2023-04-28T14:57:19;17.70;84.10
27314;DHT22;14800;48.174;9.798;2023-04-28T14:59:45;17.70;84.10
27314;DHT22;14800;48.174;9.798;2023-04-28T15:02:11;17.70;84.30
27314;DHT22;14800;48.174;9.798;2023-04-28T15:04:38;17.60;84.20
27314;DHT22;14800;48.174;9.798;2023-04-28T15:07:04;17.60;84.50
27314;DHT22;14800;48.174;9.798;2023-04-28T15:09:30;17.60;84.70
27314;DHT22;14800;48.174;9.798;2023-04-28T15:11:56;17.60;84.80
27314;DHT22;14800;48.174;9.798;2023-04-28T15:14:21;17.60;84.90
27314;DHT22;14800;48.174;9.798;2023-04-28T15:16:47;17.60;85.80
27314;DHT22;14800;48.174;9.798;2023-04-28T15:19:13;17.50;85.00
27314;DHT22;14800;48.174;9.798;2023-04-28T15:21:39;17.50;85.00
27314;DHT22;14800;48.174;9.798;2023-04-28T15:24:05;17.50;85.00
27314;DHT22;14800;48.174;9.798;2023-04-28T15:26:31;17.50;85.00
27314;DHT22;14800;48.174;9.798;2023-04-28T15:28:57;17.40;85.30
27314;DHT22;14800;48.174;9.798;2023-04-28T15:31:23;17.40;85.30
27314;DHT22;14800;48.174;9.798;2023-04-28T15:33:50;17.40;85.30
27314;DHT22;14800;48.174;9.798;2023-04-28T15:36:17;17.40;85.20
27314;DHT22;14800;48.174;9.798;2023-04-28T15:38:48;17.40;85.20
27314;DHT22;14800;48.174;9.798;2023-04-28T15:41:16;17.40;85.40
27314;DHT22;14800;48.174;9.798;2023-04-28T15:43:42;17.50;85.40
27314;DHT22;14800;48.174;9.798;2023-04-28T15:46:09;17.50;85.40
27314;DHT22;14800;48.174;9.798;2023-04-28T15:48:38;17.50;85.30
27314;DHT22;14800;48.174;9.798;2023-04-28T15:51:05;17.50;85.60
27314;DHT22;14800;48.174;9.798;2023-04-28T15:53:30;17.50;85.40